Terminal Aerodrome Forecast
Issued by NWS

Home | Current Version | Previous Version | Text Only | Print | Product List | Glossary On
Versions: 1 2 3 4 5 6 7 8 9 10 11 12 13 14
789
FTUS46 KSTO 041732
TAFRBL
TAF
KRBL 041732Z 0418/0518 36008KT P6SM VCSH SCT040 OVC080
     FM042000 VRB05KT P6SM VCSH SCT040 OVC100
     FM050100 18006KT P6SM VCSH SCT040 OVC100
      TEMPO 0501/0505 5SM -TSRA OVC040CB
     FM050900 VRB04KT P6SM -SHRA OVC040 PROB30 0509/0513 5SM -TSRA
      OVC040CB=

USA.gov is the U.S. government's official web portal to all federal, state and local government web resources and services.